Time;durP1;ratioP1;P1;durP2;ratioP2;P2;SDS_P1;SDS_P2;PMS_P1;PMS_P2;Temp;Humidity;BMP_temperature;BMP_pressure;BME280_temperature;BME280_humidity;BME280_pressure;Samples;Min_cycle;Max_cycle;Signal;HPM_P1;HPM_P2
2022/05/18 00:00:29;;;;;;;0.80;0.60;;;;;;;;;;5009650;28;20068;-64
2022/05/18 00:02:58;;;;;;;0.50;0.50;;;;;;;;;;5010350;28;20320;-64
2022/05/18 00:05:24;;;;;;;1.02;0.63;;;;;;;;;;5010094;28;20481;-66
2022/05/18 00:07:49;;;;;;;2.08;0.70;;;;;;;;;;5009678;28;20418;-64
2022/05/18 00:10:15;;;;;;;1.77;0.80;;;;;;;;;;5009329;28;20456;-65
2022/05/18 00:12:49;;;;;;;1.42;0.70;;;;;;;;;;5009679;28;20335;-65
2022/05/18 00:15:15;;;;;;;2.03;0.82;;;;;;;;;;5008954;28;20439;-64
2022/05/18 00:17:41;;;;;;;2.35;0.60;;;;;;;;;;5009538;28;20375;-65
2022/05/18 00:20:08;;;;;;;3.17;0.90;;;;;;;;;;5009135;28;20025;-65
2022/05/18 00:22:33;;;;;;;1.20;0.68;;;;;;;;;;5010009;28;20025;-64
2022/05/18 00:25:01;;;;;;;2.30;1.00;;;;;;;;;;5009257;28;20436;-64
2022/05/18 00:27:27;;;;;;;0.52;0.52;;;;;;;;;;5008937;28;20507;-64
2022/05/18 00:29:52;;;;;;;1.33;0.73;;;;;;;;;;5009341;28;20408;-65
2022/05/18 00:32:17;;;;;;;2.75;0.70;;;;;;;;;;5009299;28;20446;-64
2022/05/18 00:34:43;;;;;;;0.95;0.68;;;;;;;;;;5008808;28;20432;-65
2022/05/18 00:37:08;;;;;;;1.90;0.77;;;;;;;;;;5009049;28;20313;-65
2022/05/18 00:39:33;;;;;;;1.30;0.70;;;;;;;;;;5008751;28;20387;-65
2022/05/18 00:41:59;;;;;;;5.55;1.00;;;;;;;;;;5009227;28;20111;-64
2022/05/18 00:44:24;;;;;;;0.68;0.65;;;;;;;;;;5008712;28;20431;-64
2022/05/18 00:46:49;;;;;;;2.67;0.70;;;;;;;;;;5008898;28;20523;-64
2022/05/18 00:49:14;;;;;;;1.52;0.70;;;;;;;;;;5008715;28;20032;-64
2022/05/18 00:51:53;;;;;;;1.08;0.70;;;;;;;;;;5007362;28;20428;-64
2022/05/18 00:54:23;;;;;;;1.98;0.82;;;;;;;;;;4992210;28;20378;-64
2022/05/18 00:56:53;;;;;;;1.52;0.77;;;;;;;;;;4990759;28;20335;-64
2022/05/18 00:59:22;;;;;;;2.47;0.40;;;;;;;;;;4990800;28;20404;-65
2022/05/18 01:01:48;;;;;;;0.73;0.65;;;;;;;;;;5006214;28;20122;-63
2022/05/18 01:04:15;;;;;;;1.30;0.65;;;;;;;;;;5008920;28;20106;-64
2022/05/18 01:06:44;;;;;;;1.40;0.70;;;;;;;;;;4991257;28;20371;-64
2022/05/18 01:09:16;;;;;;;1.30;0.60;;;;;;;;;;5010118;28;20465;-65
2022/05/18 01:11:41;;;;;;;1.50;0.73;;;;;;;;;;5007555;28;20424;-65
2022/05/18 01:14:11;;;;;;;0.98;0.57;;;;;;;;;;5008580;28;20483;-64
2022/05/18 01:16:36;;;;;;;1.02;0.70;;;;;;;;;;5008544;28;20349;-65
2022/05/18 01:19:03;;;;;;;0.98;0.57;;;;;;;;;;5007177;28;20352;-64
2022/05/18 01:21:35;;;;;;;2.22;0.70;;;;;;;;;;5007038;28;20107;-65
2022/05/18 01:24:06;;;;;;;1.85;0.75;;;;;;;;;;5007595;28;20033;-64
2022/05/18 01:26:37;;;;;;;2.35;0.73;;;;;;;;;;5008662;28;20408;-64
2022/05/18 01:29:05;;;;;;;1.27;0.60;;;;;;;;;;5007535;28;20528;-64
2022/05/18 01:31:47;;;;;;;1.38;0.68;;;;;;;;;;5008549;28;20432;-65
2022/05/18 01:34:14;;;;;;;1.20;0.70;;;;;;;;;;5008243;28;20477;-64
2022/05/18 01:36:39;;;;;;;1.83;0.55;;;;;;;;;;5008531;28;20463;-63
2022/05/18 01:39:06;;;;;;;1.00;0.70;;;;;;;;;;5009026;28;20506;-64
2022/05/18 01:41:34;;;;;;;1.52;0.68;;;;;;;;;;5009095;28;20328;-65
2022/05/18 01:44:00;;;;;;;0.40;0.33;;;;;;;;;;5007155;28;20514;-63
2022/05/18 01:46:28;;;;;;;3.22;0.70;;;;;;;;;;5008227;28;20354;-64
2022/05/18 01:48:54;;;;;;;1.40;0.77;;;;;;;;;;5009636;28;20328;-63
2022/05/18 01:51:35;;;;;;;1.65;0.80;;;;;;;;;;5012260;28;20469;-64
2022/05/18 01:54:00;;;;;;;3.05;0.75;;;;;;;;;;5010644;28;20293;-64
2022/05/18 01:56:26;;;;;;;3.75;0.93;;;;;;;;;;5012184;28;20328;-64
2022/05/18 01:58:51;;;;;;;0.90;0.60;;;;;;;;;;5012906;28;20465;-63
2022/05/18 02:01:17;;;;;;;1.13;0.80;;;;;;;;;;5012259;28;20348;-63
2022/05/18 02:03:42;;;;;;;1.45;0.70;;;;;;;;;;5012752;28;20390;-64
2022/05/18 02:06:07;;;;;;;2.55;1.05;;;;;;;;;;5011762;28;20505;-64
2022/05/18 02:08:33;;;;;;;1.05;0.80;;;;;;;;;;5012214;28;20423;-64
2022/05/18 02:10:58;;;;;;;1.30;0.70;;;;;;;;;;5011777;28;20408;-63
2022/05/18 02:13:23;;;;;;;1.48;0.82;;;;;;;;;;5011635;28;20443;-64
2022/05/18 02:15:49;;;;;;;1.85;0.98;;;;;;;;;;5011797;28;20381;-64
2022/05/18 02:18:14;;;;;;;2.42;0.80;;;;;;;;;;5011717;28;20404;-64
2022/05/18 02:20:40;;;;;;;1.63;0.70;;;;;;;;;;5012126;28;20435;-64
2022/05/18 02:23:06;;;;;;;1.50;0.80;;;;;;;;;;5011506;28;20394;-64
2022/05/18 02:25:32;;;;;;;2.88;0.90;;;;;;;;;;5011136;28;20090;-64
2022/05/18 02:27:58;;;;;;;1.10;0.63;;;;;;;;;;5011146;28;20423;-64
2022/05/18 02:30:24;;;;;;;1.83;1.00;;;;;;;;;;5011747;28;20024;-64
2022/05/18 02:32:49;;;;;;;1.90;1.00;;;;;;;;;;5013041;28;20086;-64
2022/05/18 02:35:14;;;;;;;1.45;0.77;;;;;;;;;;5011282;28;20032;-64
2022/05/18 02:37:40;;;;;;;3.80;0.98;;;;;;;;;;5011854;28;20033;-64
2022/05/18 02:40:07;;;;;;;1.40;0.73;;;;;;;;;;5011230;28;20086;-64
2022/05/18 02:42:33;;;;;;;3.30;1.10;;;;;;;;;;5010885;28;20086;-64
2022/05/18 02:44:58;;;;;;;1.65;0.95;;;;;;;;;;5010995;28;20175;-64
2022/05/18 02:47:23;;;;;;;1.35;0.50;;;;;;;;;;5011146;28;20401;-64
2022/05/18 02:49:49;;;;;;;2.72;1.45;;;;;;;;;;5010775;28;20382;-64
2022/05/18 02:52:14;;;;;;;1.35;0.80;;;;;;;;;;5010754;28;20485;-65
2022/05/18 02:57:24;;;;;;;2.97;0.65;;;;;;;;;;5010819;28;20422;-64
2022/05/18 02:59:49;;;;;;;2.22;0.68;;;;;;;;;;5010422;28;20149;-65
2022/05/18 03:02:14;;;;;;;1.50;0.75;;;;;;;;;;5010729;28;20032;-64
2022/05/18 03:04:40;;;;;;;2.88;1.00;;;;;;;;;;5010488;28;20393;-64
2022/05/18 03:07:05;;;;;;;3.90;0.65;;;;;;;;;;5010973;28;20448;-64
2022/05/18 03:09:31;;;;;;;2.53;1.17;;;;;;;;;;5011473;28;20347;-64
2022/05/18 03:11:56;;;;;;;3.15;1.33;;;;;;;;;;5010790;28;20362;-64
2022/05/18 03:14:22;;;;;;;3.47;0.98;;;;;;;;;;5011104;28;20360;-64
2022/05/18 03:16:48;;;;;;;2.20;1.00;;;;;;;;;;5010495;28;20539;-64
2022/05/18 03:19:14;;;;;;;2.25;0.98;;;;;;;;;;5010364;28;20408;-64
2022/05/18 03:24:24;;;;;;;2.63;0.80;;;;;;;;;;5011256;28;20549;-65
2022/05/18 03:26:50;;;;;;;1.52;0.70;;;;;;;;;;5010117;28;20454;-64
2022/05/18 03:29:17;;;;;;;0.85;0.60;;;;;;;;;;5010288;28;20029;-63
2022/05/18 03:31:42;;;;;;;2.30;0.90;;;;;;;;;;5010298;28;20530;-64
2022/05/18 03:34:08;;;;;;;1.42;0.90;;;;;;;;;;5010476;28;20435;-63
2022/05/18 03:36:34;;;;;;;1.40;0.90;;;;;;;;;;5009984;28;20477;-65
2022/05/18 03:39:01;;;;;;;2.30;0.90;;;;;;;;;;5010125;28;20454;-65
2022/05/18 03:41:26;;;;;;;1.13;0.85;;;;;;;;;;5010426;28;20412;-64
2022/05/18 03:43:51;;;;;;;2.00;0.60;;;;;;;;;;5009862;28;20343;-64
2022/05/18 03:46:17;;;;;;;0.88;0.68;;;;;;;;;;5009989;28;20450;-64
2022/05/18 03:48:42;;;;;;;2.00;0.98;;;;;;;;;;5009898;28;20428;-63
2022/05/18 03:51:11;;;;;;;1.63;0.95;;;;;;;;;;5010880;28;20344;-64
2022/05/18 03:53:37;;;;;;;1.50;1.02;;;;;;;;;;5009709;28;20416;-63
2022/05/18 03:56:02;;;;;;;1.48;0.80;;;;;;;;;;4991700;28;20388;-63
2022/05/18 03:58:28;;;;;;;1.85;1.00;;;;;;;;;;5009561;28;20381;-64
2022/05/18 04:00:55;;;;;;;1.08;0.90;;;;;;;;;;5009617;28;20451;-64
2022/05/18 04:03:23;;;;;;;3.33;0.80;;;;;;;;;;5011144;28;20406;-64
2022/05/18 04:05:49;;;;;;;2.83;1.67;;;;;;;;;;5009541;28;20025;-64
2022/05/18 04:08:14;;;;;;;1.50;0.85;;;;;;;;;;5009453;28;20532;-64
2022/05/18 04:10:40;;;;;;;1.10;0.70;;;;;;;;;;5008891;28;20431;-63
2022/05/18 04:13:13;;;;;;;3.00;0.70;;;;;;;;;;5009216;28;20348;-64
2022/05/18 04:15:38;;;;;;;2.30;0.90;;;;;;;;;;5009498;28;20340;-65
2022/05/18 04:18:04;;;;;;;1.45;0.80;;;;;;;;;;5009179;28;20024;-64
2022/05/18 04:20:29;;;;;;;3.03;0.75;;;;;;;;;;5009847;28;20434;-64
2022/05/18 04:22:55;;;;;;;2.10;1.08;;;;;;;;;;5008984;28;20028;-64
2022/05/18 04:25:23;;;;;;;1.65;0.70;;;;;;;;;;5008832;28;20032;-64
2022/05/18 04:27:49;;;;;;;1.05;0.73;;;;;;;;;;5009448;28;20489;-64
2022/05/18 04:30:16;;;;;;;0.93;0.70;;;;;;;;;;5009294;28;20506;-64
2022/05/18 04:32:41;;;;;;;2.13;0.85;;;;;;;;;;5009256;28;20442;-64
2022/05/18 04:35:08;;;;;;;1.85;0.65;;;;;;;;;;5009142;28;20308;-64
2022/05/18 04:37:34;;;;;;;1.27;0.80;;;;;;;;;;5010192;28;20474;-65
2022/05/18 04:39:59;;;;;;;1.85;0.90;;;;;;;;;;5009191;28;20427;-64
2022/05/18 04:42:24;;;;;;;1.23;0.80;;;;;;;;;;5008909;28;20488;-63
2022/05/18 04:44:50;;;;;;;2.25;0.90;;;;;;;;;;5008928;28;20451;-65
2022/05/18 04:47:16;;;;;;;1.77;0.75;;;;;;;;;;5009086;28;20036;-64
2022/05/18 04:49:43;;;;;;;1.65;0.82;;;;;;;;;;5008739;28;20056;-64
2022/05/18 04:52:08;;;;;;;2.20;0.90;;;;;;;;;;5008998;28;20055;-64
2022/05/18 04:54:34;;;;;;;2.53;1.02;;;;;;;;;;5008544;28;20428;-64
2022/05/18 04:57:00;;;;;;;2.03;0.73;;;;;;;;;;5008857;28;20355;-63
2022/05/18 04:59:25;;;;;;;1.00;0.75;;;;;;;;;;5008945;28;20032;-64
2022/05/18 05:01:51;;;;;;;3.80;0.90;;;;;;;;;;5009769;28;20424;-64
2022/05/18 05:04:16;;;;;;;3.83;0.88;;;;;;;;;;5009057;28;20335;-63
2022/05/18 05:06:43;;;;;;;0.90;0.70;;;;;;;;;;5008260;28;20157;-63
2022/05/18 05:09:08;;;;;;;2.30;0.70;;;;;;;;;;5009122;28;20329;-64
2022/05/18 05:11:34;;;;;;;0.95;0.68;;;;;;;;;;4990539;28;20265;-64
2022/05/18 05:13:59;;;;;;;3.85;0.80;;;;;;;;;;5008525;28;20020;-64
2022/05/18 05:16:26;;;;;;;1.90;0.90;;;;;;;;;;5008237;28;20378;-65
2022/05/18 05:18:51;;;;;;;1.20;0.80;;;;;;;;;;5009382;28;20082;-64
2022/05/18 05:21:17;;;;;;;0.90;0.52;;;;;;;;;;5008402;28;20432;-64
2022/05/18 05:23:42;;;;;;;1.52;0.80;;;;;;;;;;5011582;28;20415;-64
2022/05/18 05:26:07;;;;;;;2.67;0.85;;;;;;;;;;5012179;28;20470;-64
2022/05/18 05:28:32;;;;;;;0.93;0.70;;;;;;;;;;5012254;28;20454;-64
2022/05/18 05:31:02;;;;;;;1.80;1.00;;;;;;;;;;5012487;28;20046;-63
2022/05/18 05:33:28;;;;;;;1.33;0.80;;;;;;;;;;5012033;28;20435;-63
2022/05/18 05:35:53;;;;;;;1.00;0.60;;;;;;;;;;5013725;28;20435;-65
2022/05/18 05:38:19;;;;;;;3.00;0.73;;;;;;;;;;5012651;28;20428;-64
2022/05/18 05:40:44;;;;;;;1.40;0.80;;;;;;;;;;5012768;28;20428;-64
2022/05/18 05:43:10;;;;;;;2.08;0.80;;;;;;;;;;5012553;28;20075;-64
2022/05/18 05:45:36;;;;;;;1.25;0.80;;;;;;;;;;4993858;28;20466;-64
2022/05/18 05:48:03;;;;;;;1.67;0.77;;;;;;;;;;5011997;28;20443;-63
2022/05/18 05:50:30;;;;;;;1.10;0.82;;;;;;;;;;5013136;28;20408;-64
2022/05/18 05:52:56;;;;;;;0.55;0.43;;;;;;;;;;5013484;28;20470;-64
2022/05/18 05:55:21;;;;;;;1.48;0.90;;;;;;;;;;5012920;28;20478;-64
2022/05/18 05:57:47;;;;;;;1.13;0.60;;;;;;;;;;5012032;28;20417;-63
2022/05/18 06:00:13;;;;;;;1.88;1.00;;;;;;;;;;5011678;28;20381;-63
2022/05/18 06:02:38;;;;;;;1.17;0.40;;;;;;;;;;5011636;28;20021;-64
2022/05/18 06:05:04;;;;;;;0.77;0.70;;;;;;;;;;5011859;28;20458;-64
2022/05/18 06:07:30;;;;;;;0.98;0.70;;;;;;;;;;5011292;28;20412;-64
2022/05/18 06:09:56;;;;;;;2.65;0.80;;;;;;;;;;5011477;28;20400;-64
2022/05/18 06:12:24;;;;;;;0.52;0.50;;;;;;;;;;5011882;28;20020;-64
2022/05/18 06:14:49;;;;;;;1.73;0.50;;;;;;;;;;5011895;28;20029;-64
2022/05/18 06:17:15;;;;;;;1.75;0.70;;;;;;;;;;5011559;28;20466;-64
2022/05/18 06:19:40;;;;;;;4.53;1.15;;;;;;;;;;5012949;28;20399;-65
2022/05/18 06:22:06;;;;;;;0.65;0.60;;;;;;;;;;5011399;28;20048;-64
2022/05/18 06:24:31;;;;;;;0.75;0.55;;;;;;;;;;5011368;28;20428;-64
2022/05/18 06:26:58;;;;;;;3.22;0.70;;;;;;;;;;5011922;28;20051;-64
2022/05/18 06:29:24;;;;;;;1.85;0.68;;;;;;;;;;5011496;28;20405;-65
2022/05/18 06:31:50;;;;;;;1.95;0.77;;;;;;;;;;5012247;28;20348;-64
2022/05/18 06:34:15;;;;;;;0.70;0.57;;;;;;;;;;5011044;28;20341;-64
2022/05/18 06:36:40;;;;;;;1.55;0.77;;;;;;;;;;5011916;28;20321;-63
2022/05/18 06:39:06;;;;;;;1.92;0.70;;;;;;;;;;5010906;28;20386;-65
2022/05/18 06:41:32;;;;;;;1.52;0.65;;;;;;;;;;5011072;28;20343;-64
2022/05/18 06:44:02;;;;;;;1.02;0.80;;;;;;;;;;5011973;28;20029;-65
2022/05/18 06:46:30;;;;;;;2.03;0.80;;;;;;;;;;5010560;28;20111;-64
2022/05/18 06:48:56;;;;;;;0.77;0.52;;;;;;;;;;5011739;28;20029;-64
2022/05/18 06:51:27;;;;;;;0.60;0.45;;;;;;;;;;5010849;28;20028;-64
2022/05/18 06:53:53;;;;;;;3.72;0.80;;;;;;;;;;5011820;28;20439;-64
2022/05/18 06:56:25;;;;;;;3.10;0.70;;;;;;;;;;5011136;28;20343;-63
2022/05/18 06:58:51;;;;;;;1.20;0.60;;;;;;;;;;5010862;28;20424;-64
2022/05/18 07:01:17;;;;;;;1.83;0.80;;;;;;;;;;5010784;28;20418;-64
2022/05/18 07:03:44;;;;;;;0.90;0.60;;;;;;;;;;5011131;28;20455;-63
2022/05/18 07:06:09;;;;;;;1.73;0.57;;;;;;;;;;5011336;28;20486;-65
2022/05/18 07:08:35;;;;;;;1.08;0.68;;;;;;;;;;5010570;28;20473;-64
2022/05/18 07:11:00;;;;;;;1.02;0.70;;;;;;;;;;5011878;28;20028;-63
2022/05/18 07:13:26;;;;;;;0.85;0.55;;;;;;;;;;5011569;28;20365;-64
2022/05/18 07:15:51;;;;;;;0.70;0.50;;;;;;;;;;5010740;28;20324;-64
2022/05/18 07:18:17;;;;;;;0.30;0.30;;;;;;;;;;5010324;28;20083;-64
2022/05/18 07:20:42;;;;;;;1.63;0.40;;;;;;;;;;5010352;28;20099;-64
2022/05/18 07:23:08;;;;;;;1.65;0.65;;;;;;;;;;5010133;28;20346;-64
2022/05/18 07:25:34;;;;;;;1.65;0.70;;;;;;;;;;5010523;28;20043;-64
2022/05/18 07:27:59;;;;;;;1.27;0.60;;;;;;;;;;5011042;28;20036;-63
2022/05/18 07:30:25;;;;;;;3.78;0.60;;;;;;;;;;5010523;28;20351;-64
2022/05/18 07:32:50;;;;;;;0.60;0.30;;;;;;;;;;5009688;28;20079;-63
2022/05/18 07:35:16;;;;;;;2.20;0.60;;;;;;;;;;5010585;28;20380;-64
2022/05/18 07:37:41;;;;;;;1.05;0.75;;;;;;;;;;5009865;28;20339;-64
2022/05/18 07:40:08;;;;;;;0.57;0.50;;;;;;;;;;5010548;28;20332;-64
2022/05/18 07:42:34;;;;;;;1.40;0.50;;;;;;;;;;5010168;28;20447;-63
2022/05/18 07:44:59;;;;;;;0.98;0.65;;;;;;;;;;5009854;28;20032;-64
2022/05/18 07:47:30;;;;;;;2.13;0.60;;;;;;;;;;5008836;28;20443;-65
2022/05/18 07:49:55;;;;;;;1.05;0.80;;;;;;;;;;5009863;28;20514;-64
2022/05/18 07:52:20;;;;;;;0.60;0.40;;;;;;;;;;5009534;28;20520;-64
2022/05/18 07:54:47;;;;;;;1.23;0.57;;;;;;;;;;5010197;28;20432;-63
2022/05/18 07:57:13;;;;;;;0.90;0.50;;;;;;;;;;5009552;28;20359;-64
2022/05/18 07:59:38;;;;;;;1.45;0.70;;;;;;;;;;5009719;28;20020;-64
2022/05/18 08:02:04;;;;;;;1.08;0.50;;;;;;;;;;5009989;28;20509;-63
2022/05/18 08:04:29;;;;;;;1.35;0.60;;;;;;;;;;5009656;28;20440;-64
2022/05/18 08:06:54;;;;;;;0.73;0.60;;;;;;;;;;5010340;28;20498;-64
2022/05/18 08:09:22;;;;;;;0.43;0.43;;;;;;;;;;5009598;28;20350;-65
2022/05/18 08:17:20;;;;;;;0.85;0.60;;;;;;;;;;5011026;28;20332;-64
2022/05/18 08:19:46;;;;;;;0.40;0.40;;;;;;;;;;5009007;28;20442;-63
2022/05/18 08:22:11;;;;;;;0.80;0.55;;;;;;;;;;5009518;28;20344;-64
2022/05/18 08:24:37;;;;;;;0.52;0.47;;;;;;;;;;5009542;28;20352;-64
2022/05/18 08:27:04;;;;;;;0.40;0.30;;;;;;;;;;5009932;28;20465;-64
2022/05/18 08:29:30;;;;;;;1.45;0.88;;;;;;;;;;5009391;28;20402;-64
2022/05/18 08:31:56;;;;;;;2.47;0.70;;;;;;;;;;5009103;28;20351;-65
2022/05/18 08:34:21;;;;;;;0.63;0.50;;;;;;;;;;5010743;28;20442;-63
2022/05/18 08:36:46;;;;;;;0.30;0.25;;;;;;;;;;5010382;28;20419;-63
2022/05/18 08:39:12;;;;;;;1.20;0.63;;;;;;;;;;5010170;28;20167;-63
2022/05/18 08:41:44;;;;;;;0.88;0.40;;;;;;;;;;5010103;28;20447;-64
2022/05/18 08:44:19;;;;;;;1.30;0.80;;;;;;;;;;5009240;28;20336;-64
2022/05/18 08:46:50;;;;;;;0.30;0.30;;;;;;;;;;5008500;28;20050;-64
2022/05/18 08:49:49;;;;;;;0.52;0.40;;;;;;;;;;4990565;28;20123;-63
2022/05/18 08:52:27;;;;;;;0.65;0.50;;;;;;;;;;5008250;28;20063;-63
2022/05/18 08:55:17;;;;;;;0.75;0.40;;;;;;;;;;5010198;28;20024;-64
2022/05/18 08:57:45;;;;;;;0.68;0.60;;;;;;;;;;5008811;28;20462;-64
2022/05/18 09:00:17;;;;;;;1.65;0.65;;;;;;;;;;4991489;28;20434;-64
2022/05/18 09:02:44;;;;;;;1.15;0.35;;;;;;;;;;5008822;28;20359;-65
2022/05/18 09:05:31;;;;;;;0.50;0.40;;;;;;;;;;5008270;28;20406;-65
2022/05/18 09:08:06;;;;;;;2.00;0.40;;;;;;;;;;5004687;28;20455;-64
2022/05/18 09:10:36;;;;;;;1.67;0.73;;;;;;;;;;4991093;28;20029;-65
2022/05/18 09:13:02;;;;;;;0.70;0.52;;;;;;;;;;5008309;28;20170;-64
2022/05/18 09:15:35;;;;;;;1.50;0.43;;;;;;;;;;5008295;28;20514;-64
2022/05/18 09:18:08;;;;;;;2.88;0.63;;;;;;;;;;5008930;28;20478;-63
2022/05/18 09:20:42;;;;;;;0.98;0.60;;;;;;;;;;5008900;28;20441;-64
2022/05/18 09:23:14;;;;;;;0.77;0.60;;;;;;;;;;5008358;28;20324;-64
2022/05/18 09:25:57;;;;;;;0.70;0.35;;;;;;;;;;5008144;28;20398;-64
2022/05/18 09:28:44;;;;;;;1.95;0.55;;;;;;;;;;5009533;28;20309;-63
2022/05/18 09:31:34;;;;;;;0.30;0.30;;;;;;;;;;5008355;28;20465;-64
2022/05/18 09:34:54;;;;;;;1.90;0.52;;;;;;;;;;5008348;28;20462;-65
2022/05/18 09:37:39;;;;;;;0.60;0.50;;;;;;;;;;4946898;28;20187;-64
2022/05/18 09:40:06;;;;;;;0.63;0.45;;;;;;;;;;4946771;28;20516;-63
2022/05/18 09:42:34;;;;;;;3.25;0.50;;;;;;;;;;4983486;28;20466;-64
2022/05/18 09:45:05;;;;;;;0.40;0.38;;;;;;;;;;4990655;28;20119;-64
2022/05/18 09:47:36;;;;;;;1.33;0.63;;;;;;;;;;5008662;28;20335;-64
2022/05/18 09:50:06;;;;;;;0.70;0.55;;;;;;;;;;4990458;28;20024;-64
2022/05/18 09:52:32;;;;;;;1.00;0.50;;;;;;;;;;4991191;28;20403;-63
2022/05/18 09:54:59;;;;;;;1.95;0.65;;;;;;;;;;5007987;28;20470;-64
2022/05/18 09:57:31;;;;;;;0.50;0.35;;;;;;;;;;5008290;28;20390;-64
2022/05/18 09:59:59;;;;;;;0.28;0.22;;;;;;;;;;5007898;28;20316;-63
2022/05/18 10:07:59;;;;;;;0.93;0.50;;;;;;;;;;5007833;28;20387;-63
2022/05/18 10:10:34;;;;;;;0.85;0.40;;;;;;;;;;5010427;28;20416;-64
2022/05/18 10:13:12;;;;;;;0.95;0.43;;;;;;;;;;4994157;28;20056;-64
2022/05/18 10:15:41;;;;;;;0.60;0.40;;;;;;;;;;5012553;28;20436;-64
2022/05/18 10:18:17;;;;;;;4.93;0.40;;;;;;;;;;5011489;28;20722;-64
2022/05/18 10:20:43;;;;;;;3.22;0.50;;;;;;;;;;4993584;28;20366;-64
2022/05/18 10:23:30;;;;;;;0.45;0.32;;;;;;;;;;4993524;28;20032;-64
2022/05/18 10:25:56;;;;;;;0.95;0.50;;;;;;;;;;5011212;28;20511;-63
2022/05/18 10:28:26;;;;;;;0.35;0.20;;;;;;;;;;5011437;28;20446;-64
2022/05/18 10:30:58;;;;;;;0.73;0.50;;;;;;;;;;5011324;28;20339;-65
2022/05/18 10:33:31;;;;;;;1.45;0.40;;;;;;;;;;5013089;28;20510;-66
2022/05/18 10:35:57;;;;;;;0.60;0.50;;;;;;;;;;5010856;28;20442;-64
2022/05/18 10:38:26;;;;;;;1.70;0.50;;;;;;;;;;5011321;28;20443;-64
2022/05/18 10:41:03;;;;;;;0.75;0.30;;;;;;;;;;5011220;28;20428;-64
2022/05/18 10:43:37;;;;;;;0.40;0.30;;;;;;;;;;5011482;28;20028;-63
2022/05/18 10:46:17;;;;;;;1.05;0.40;;;;;;;;;;4993082;28;20511;-65
2022/05/18 10:48:53;;;;;;;0.82;0.50;;;;;;;;;;5012441;28;20059;-64
2022/05/18 10:51:27;;;;;;;0.28;0.28;;;;;;;;;;4993057;28;20390;-63
2022/05/18 10:54:06;;;;;;;0.55;0.40;;;;;;;;;;5010924;28;20420;-65
2022/05/18 10:56:31;;;;;;;;;;;;;;;;;;4993417;28;20379;-64
2022/05/18 10:59:42;;;;;;;0.33;0.30;;;;;;;;;;5011158;28;20196;-64
2022/05/18 11:02:34;;;;;;;0.70;0.47;;;;;;;;;;5007724;28;20270;-65
2022/05/18 11:05:15;;;;;;;1.45;0.30;;;;;;;;;;5010902;28;20028;-66
2022/05/18 11:07:40;;;;;;;0.50;0.50;;;;;;;;;;5000388;28;20057;-64
2022/05/18 11:10:07;;;;;;;0.47;0.20;;;;;;;;;;5009741;28;20086;-63
2022/05/18 11:12:56;;;;;;;0.30;0.30;;;;;;;;;;5010301;28;20435;-65
2022/05/18 11:15:36;;;;;;;0.47;0.45;;;;;;;;;;5010570;28;20040;-64
2022/05/18 11:18:21;;;;;;;0.88;0.40;;;;;;;;;;5010075;28;20455;-65
2022/05/18 11:21:15;;;;;;;0.43;0.30;;;;;;;;;;5010283;28;20378;-66
2022/05/18 11:24:18;;;;;;;0.35;0.30;;;;;;;;;;5010203;28;20416;-64
2022/05/18 11:26:55;;;;;;;0.43;0.20;;;;;;;;;;5010329;28;20432;-65
2022/05/18 11:29:47;;;;;;;0.50;0.38;;;;;;;;;;5010345;28;20407;-64
2022/05/18 11:32:22;;;;;;;0.30;0.30;;;;;;;;;;5008742;28;20135;-64
2022/05/18 11:34:57;;;;;;;0.88;0.25;;;;;;;;;;5010367;28;20521;-65
2022/05/18 11:37:36;;;;;;;0.75;0.40;;;;;;;;;;5010844;28;20525;-64
2022/05/18 11:40:13;;;;;;;0.30;0.28;;;;;;;;;;5008725;28;20442;-64
2022/05/18 11:42:49;;;;;;;0.43;0.30;;;;;;;;;;5008560;28;20421;-64
2022/05/18 11:45:20;;;;;;;0.35;0.25;;;;;;;;;;5011517;28;20692;-66
2022/05/18 11:48:04;;;;;;;0.47;0.20;;;;;;;;;;5010417;28;20098;-61
2022/05/18 11:51:04;;;;;;;1.30;0.40;;;;;;;;;;5010112;28;20510;-65
2022/05/18 11:53:45;;;;;;;0.70;0.20;;;;;;;;;;5010113;28;20440;-63
2022/05/18 11:56:20;;;;;;;0.25;0.25;;;;;;;;;;5010564;28;20350;-64
2022/05/18 11:58:53;;;;;;;0.20;0.20;;;;;;;;;;5009852;28;20070;-64
2022/05/18 12:01:45;;;;;;;0.40;0.30;;;;;;;;;;5010469;28;20438;-63
2022/05/18 12:04:20;;;;;;;0.30;0.30;;;;;;;;;;5009443;28;20470;-65
2022/05/18 12:07:15;;;;;;;1.40;0.40;;;;;;;;;;5010272;28;20502;-64
2022/05/18 12:09:46;;;;;;;0.47;0.47;;;;;;;;;;5009406;28;20457;-64
2022/05/18 12:12:27;;;;;;;1.10;0.43;;;;;;;;;;5009891;28;20328;-63
2022/05/18 12:14:52;;;;;;;0.13;0.13;;;;;;;;;;4991906;28;20391;-64
2022/05/18 12:17:23;;;;;;;0.88;0.40;;;;;;;;;;5009355;28;20386;-63
2022/05/18 12:20:07;;;;;;;0.30;0.20;;;;;;;;;;5009274;28;20440;-65
2022/05/18 12:22:38;;;;;;;2.63;0.20;;;;;;;;;;5008995;28;20424;-66
2022/05/18 12:25:04;;;;;;;0.65;0.30;;;;;;;;;;4991547;28;20332;-65
2022/05/18 12:27:30;;;;;;;0.55;0.35;;;;;;;;;;4991684;28;20344;-64
2022/05/18 12:29:57;;;;;;;0.73;0.35;;;;;;;;;;5009172;28;20052;-65
2022/05/18 12:32:24;;;;;;;0.75;0.30;;;;;;;;;;4990644;28;20025;-63
2022/05/18 12:35:01;;;;;;;0.45;0.30;;;;;;;;;;5009181;28;20350;-65
2022/05/18 12:37:36;;;;;;;1.45;0.57;;;;;;;;;;5008982;28;20470;-64
2022/05/18 12:40:19;;;;;;;0.40;0.30;;;;;;;;;;4990745;28;20036;-64
2022/05/18 12:42:56;;;;;;;0.98;0.50;;;;;;;;;;5008756;28;20455;-65
2022/05/18 12:45:55;;;;;;;0.28;0.28;;;;;;;;;;5009608;28;20454;-64
2022/05/18 12:48:45;;;;;;;0.40;0.10;;;;;;;;;;4997396;28;20416;-65
2022/05/18 12:51:36;;;;;;;0.32;0.30;;;;;;;;;;4984671;28;20048;-65
2022/05/18 12:54:13;;;;;;;0.50;0.40;;;;;;;;;;5001407;28;20458;-63
2022/05/18 12:56:38;;;;;;;0.40;0.30;;;;;;;;;;4991118;28;20064;-64
2022/05/18 12:59:12;;;;;;;0.45;0.32;;;;;;;;;;5008539;28;20499;-64
2022/05/18 13:01:43;;;;;;;0.10;0.10;;;;;;;;;;5009572;28;20419;-63
2022/05/18 13:04:08;;;;;;;0.70;0.17;;;;;;;;;;5008339;28;20417;-64
2022/05/18 13:06:36;;;;;;;0.85;0.35;;;;;;;;;;5008329;28;20422;-64
2022/05/18 13:09:20;;;;;;;0.43;0.40;;;;;;;;;;5008959;28;20059;-64
2022/05/18 13:11:48;;;;;;;0.47;0.30;;;;;;;;;;5008153;28;20108;-64
2022/05/18 13:14:30;;;;;;;0.52;0.40;;;;;;;;;;5008441;28;20516;-64
2022/05/18 13:16:58;;;;;;;0.63;0.30;;;;;;;;;;5008197;28;20394;-64
2022/05/18 13:19:28;;;;;;;1.10;0.27;;;;;;;;;;5009628;28;20378;-64
2022/05/18 13:22:11;;;;;;;0.30;0.30;;;;;;;;;;5008779;28;20363;-64
2022/05/18 13:24:43;;;;;;;0.45;0.30;;;;;;;;;;5007893;28;20502;-64
2022/05/18 13:27:15;;;;;;;1.30;0.40;;;;;;;;;;4990828;28;20394;-64
2022/05/18 13:29:41;;;;;;;1.27;0.40;;;;;;;;;;4990471;28;20407;-63
2022/05/18 13:32:09;;;;;;;0.75;0.28;;;;;;;;;;4991051;28;20339;-64
2022/05/18 13:34:50;;;;;;;1.25;0.30;;;;;;;;;;4991260;28;20337;-64
2022/05/18 13:37:16;;;;;;;1.23;0.40;;;;;;;;;;4990283;28;20471;-63
2022/05/18 13:39:47;;;;;;;0.30;0.28;;;;;;;;;;5008552;28;20499;-64
2022/05/18 13:42:20;;;;;;;0.20;0.20;;;;;;;;;;5010070;28;20091;-61
2022/05/18 13:44:54;;;;;;;0.38;0.28;;;;;;;;;;5013013;28;20041;-62
2022/05/18 13:47:25;;;;;;;0.32;0.22;;;;;;;;;;5011492;28;20353;-62
2022/05/18 13:49:51;;;;;;;0.40;0.40;;;;;;;;;;5012623;28;20420;-62
2022/05/18 13:52:22;;;;;;;2.33;0.30;;;;;;;;;;4995019;28;20418;-63
2022/05/18 13:54:49;;;;;;;1.08;0.40;;;;;;;;;;5011933;28;20486;-62
2022/05/18 13:57:19;;;;;;;0.28;0.22;;;;;;;;;;5012153;28;20435;-62
2022/05/18 13:59:48;;;;;;;0.32;0.20;;;;;;;;;;5012839;28;20383;-62
2022/05/18 14:02:21;;;;;;;0.32;0.30;;;;;;;;;;4994515;28;20414;-62
2022/05/18 14:04:49;;;;;;;1.27;0.28;;;;;;;;;;5012167;28;20079;-62
2022/05/18 14:07:15;;;;;;;0.65;0.40;;;;;;;;;;5012418;28;20426;-62
2022/05/18 14:09:41;;;;;;;0.30;0.30;;;;;;;;;;5012930;28;20344;-65
2022/05/18 14:12:18;;;;;;;0.73;0.30;;;;;;;;;;5011588;28;20379;-65
2022/05/18 14:14:43;;;;;;;0.88;0.32;;;;;;;;;;5012003;28;20021;-64
2022/05/18 14:17:12;;;;;;;0.88;0.45;;;;;;;;;;5011607;28;20423;-64
2022/05/18 14:20:03;;;;;;;0.43;0.43;;;;;;;;;;5011735;28;20029;-64
2022/05/18 14:22:30;;;;;;;0.82;0.73;;;;;;;;;;5011292;28;20380;-64
2022/05/18 14:25:15;;;;;;;0.15;0.13;;;;;;;;;;4993798;28;20554;-65
2022/05/18 14:27:44;;;;;;;0.30;0.30;;;;;;;;;;5011432;28;20534;-64
2022/05/18 14:30:14;;;;;;;0.17;0.17;;;;;;;;;;4993323;28;20347;-63
2022/05/18 14:32:44;;;;;;;0.25;0.20;;;;;;;;;;5011496;28;20379;-63
2022/05/18 14:35:12;;;;;;;0.40;0.30;;;;;;;;;;5011653;28;20386;-63
2022/05/18 14:37:58;;;;;;;0.30;0.30;;;;;;;;;;4993455;28;20054;-62
2022/05/18 14:40:28;;;;;;;0.40;0.28;;;;;;;;;;4993020;28;20051;-62
2022/05/18 14:42:53;;;;;;;0.22;0.20;;;;;;;;;;5011000;28;20338;-62
2022/05/18 14:45:19;;;;;;;0.35;0.25;;;;;;;;;;5011239;28;20348;-62
2022/05/18 14:47:51;;;;;;;1.17;0.45;;;;;;;;;;5010720;28;20485;-62
2022/05/18 14:50:40;;;;;;;0.30;0.30;;;;;;;;;;5011035;28;20386;-62
2022/05/18 14:53:22;;;;;;;0.57;0.40;;;;;;;;;;5010568;28;20062;-62
2022/05/18 14:55:53;;;;;;;0.20;0.20;;;;;;;;;;5010541;28;20409;-63
2022/05/18 14:58:23;;;;;;;1.13;0.32;;;;;;;;;;5011637;28;20410;-62
2022/05/18 15:00:50;;;;;;;0.73;0.20;;;;;;;;;;4993155;28;20064;-63
2022/05/18 15:03:30;;;;;;;0.25;0.25;;;;;;;;;;4994425;28;20344;-62
2022/05/18 15:05:55;;;;;;;0.60;0.55;;;;;;;;;;5011220;28;20370;-63
2022/05/18 15:08:37;;;;;;;0.32;0.30;;;;;;;;;;5010543;28;20406;-62
2022/05/18 15:11:14;;;;;;;0.13;0.13;;;;;;;;;;4992865;28;20443;-65
2022/05/18 15:13:54;;;;;;;0.50;0.32;;;;;;;;;;4992498;28;20424;-62
2022/05/18 15:16:36;;;;;;;2.25;0.70;;;;;;;;;;4992355;28;20463;-62